sensor_id;sensor_type;location;lat;lon;timestamp;P1;durP1;ratioP1;P2;durP2;ratioP2
76439;SDS011;65274;44.982;20.060;2022-12-20T00:01:10;30.45;;;16.77;;
76439;SDS011;65274;44.982;20.060;2022-12-20T00:03:36;37.47;;;17.55;;
76439;SDS011;65274;44.982;20.060;2022-12-20T00:06:03;31.67;;;17.67;;
76439;SDS011;65274;44.982;20.060;2022-12-20T00:08:29;31.67;;;15.43;;
76439;SDS011;65274;44.982;20.060;2022-12-20T00:10:55;34.42;;;17.48;;
76439;SDS011;65274;44.982;20.060;2022-12-20T00:13:21;27.13;;;15.50;;
76439;SDS011;65274;44.982;20.060;2022-12-20T00:15:47;34.33;;;16.38;;
76439;SDS011;65274;44.982;20.060;2022-12-20T00:18:13;35.83;;;17.35;;
76439;SDS011;65274;44.982;20.060;2022-12-20T00:20:39;33.17;;;15.73;;
76439;SDS011;65274;44.982;20.060;2022-12-20T00:23:05;35.03;;;16.73;;
76439;SDS011;65274;44.982;20.060;2022-12-20T00:25:31;31.80;;;15.77;;
76439;SDS011;65274;44.982;20.060;2022-12-20T00:27:57;29.95;;;16.80;;
76439;SDS011;65274;44.982;20.060;2022-12-20T00:30:25;32.15;;;15.38;;
76439;SDS011;65274;44.982;20.060;2022-12-20T00:32:51;34.15;;;17.08;;
76439;SDS011;65274;44.982;20.060;2022-12-20T00:35:17;34.83;;;16.42;;
76439;SDS011;65274;44.982;20.060;2022-12-20T00:37:43;35.22;;;15.38;;
76439;SDS011;65274;44.982;20.060;2022-12-20T00:40:09;28.33;;;14.43;;
76439;SDS011;65274;44.982;20.060;2022-12-20T00:42:35;29.58;;;14.30;;
76439;SDS011;65274;44.982;20.060;2022-12-20T00:45:01;26.73;;;16.27;;
76439;SDS011;65274;44.982;20.060;2022-12-20T00:47:28;27.60;;;14.55;;
76439;SDS011;65274;44.982;20.060;2022-12-20T00:49:54;27.85;;;13.75;;
76439;SDS011;65274;44.982;20.060;2022-12-20T00:52:20;35.35;;;17.02;;
76439;SDS011;65274;44.982;20.060;2022-12-20T00:54:46;27.55;;;15.70;;
76439;SDS011;65274;44.982;20.060;2022-12-20T00:57:12;28.05;;;15.73;;
76439;SDS011;65274;44.982;20.060;2022-12-20T00:59:38;33.38;;;16.08;;
76439;SDS011;65274;44.982;20.060;2022-12-20T01:02:04;30.70;;;14.02;;
76439;SDS011;65274;44.982;20.060;2022-12-20T01:04:30;32.58;;;16.83;;
76439;SDS011;65274;44.982;20.060;2022-12-20T01:06:56;33.90;;;16.15;;
76439;SDS011;65274;44.982;20.060;2022-12-20T01:09:22;37.88;;;16.85;;
76439;SDS011;65274;44.982;20.060;2022-12-20T01:11:48;44.95;;;19.10;;
76439;SDS011;65274;44.982;20.060;2022-12-20T01:14:15;52.15;;;22.65;;
76439;SDS011;65274;44.982;20.060;2022-12-20T01:16:42;50.85;;;21.55;;
76439;SDS011;65274;44.982;20.060;2022-12-20T01:19:09;40.95;;;20.27;;
76439;SDS011;65274;44.982;20.060;2022-12-20T01:21:36;40.85;;;20.23;;
76439;SDS011;65274;44.982;20.060;2022-12-20T01:24:08;41.05;;;20.60;;
76439;SDS011;65274;44.982;20.060;2022-12-20T01:26:34;36.17;;;17.10;;
76439;SDS011;65274;44.982;20.060;2022-12-20T01:29:00;39.30;;;21.00;;
76439;SDS011;65274;44.982;20.060;2022-12-20T01:31:26;55.72;;;29.83;;
76439;SDS011;65274;44.982;20.060;2022-12-20T01:33:53;38.70;;;21.20;;
76439;SDS011;65274;44.982;20.060;2022-12-20T01:36:20;30.02;;;16.27;;
76439;SDS011;65274;44.982;20.060;2022-12-20T01:38:49;32.65;;;16.27;;
76439;SDS011;65274;44.982;20.060;2022-12-20T01:41:18;37.17;;;18.10;;
76439;SDS011;65274;44.982;20.060;2022-12-20T01:43:46;32.53;;;16.60;;
76439;SDS011;65274;44.982;20.060;2022-12-20T01:46:13;35.03;;;14.88;;
76439;SDS011;65274;44.982;20.060;2022-12-20T01:48:39;26.65;;;14.20;;
76439;SDS011;65274;44.982;20.060;2022-12-20T01:51:05;30.40;;;14.68;;
76439;SDS011;65274;44.982;20.060;2022-12-20T01:53:32;31.27;;;14.75;;
76439;SDS011;65274;44.982;20.060;2022-12-20T01:55:59;29.20;;;15.70;;
76439;SDS011;65274;44.982;20.060;2022-12-20T01:58:28;25.40;;;13.68;;
76439;SDS011;65274;44.982;20.060;2022-12-20T02:00:54;29.75;;;15.88;;
76439;SDS011;65274;44.982;20.060;2022-12-20T02:03:20;30.27;;;14.50;;
76439;SDS011;65274;44.982;20.060;2022-12-20T02:05:46;29.45;;;13.52;;
76439;SDS011;65274;44.982;20.060;2022-12-20T02:08:12;27.48;;;14.00;;
76439;SDS011;65274;44.982;20.060;2022-12-20T02:15:54;22.70;;;12.32;;
76439;SDS011;65274;44.982;20.060;2022-12-20T02:30:55;28.08;;;15.38;;
76439;SDS011;65274;44.982;20.060;2022-12-20T02:33:22;23.83;;;12.98;;
76439;SDS011;65274;44.982;20.060;2022-12-20T02:35:49;26.48;;;12.93;;
76439;SDS011;65274;44.982;20.060;2022-12-20T02:40:52;25.80;;;14.25;;
76439;SDS011;65274;44.982;20.060;2022-12-20T02:43:18;27.27;;;13.38;;
76439;SDS011;65274;44.982;20.060;2022-12-20T02:46:03;29.27;;;14.60;;
76439;SDS011;65274;44.982;20.060;2022-12-20T02:48:30;29.50;;;14.32;;
76439;SDS011;65274;44.982;20.060;2022-12-20T02:50:57;26.97;;;13.97;;
76439;SDS011;65274;44.982;20.060;2022-12-20T02:53:24;27.40;;;12.43;;
76439;SDS011;65274;44.982;20.060;2022-12-20T02:56:11;21.33;;;13.15;;
76439;SDS011;65274;44.982;20.060;2022-12-20T02:58:52;24.10;;;11.93;;
76439;SDS011;65274;44.982;20.060;2022-12-20T03:01:21;25.55;;;13.38;;
76439;SDS011;65274;44.982;20.060;2022-12-20T03:03:49;30.48;;;13.55;;
76439;SDS011;65274;44.982;20.060;2022-12-20T03:06:16;25.10;;;12.93;;
76439;SDS011;65274;44.982;20.060;2022-12-20T03:08:42;25.58;;;12.80;;
76439;SDS011;65274;44.982;20.060;2022-12-20T03:11:08;25.17;;;13.90;;
76439;SDS011;65274;44.982;20.060;2022-12-20T03:13:34;26.70;;;13.25;;
76439;SDS011;65274;44.982;20.060;2022-12-20T03:16:00;30.40;;;16.15;;
76439;SDS011;65274;44.982;20.060;2022-12-20T03:18:26;25.00;;;12.52;;
76439;SDS011;65274;44.982;20.060;2022-12-20T03:20:52;27.77;;;13.95;;
76439;SDS011;65274;44.982;20.060;2022-12-20T03:23:18;23.52;;;13.73;;
76439;SDS011;65274;44.982;20.060;2022-12-20T03:25:46;30.25;;;16.02;;
76439;SDS011;65274;44.982;20.060;2022-12-20T03:28:12;22.40;;;12.20;;
76439;SDS011;65274;44.982;20.060;2022-12-20T03:30:38;25.73;;;13.50;;
76439;SDS011;65274;44.982;20.060;2022-12-20T03:33:04;21.63;;;12.00;;
76439;SDS011;65274;44.982;20.060;2022-12-20T03:35:30;25.35;;;11.57;;
76439;SDS011;65274;44.982;20.060;2022-12-20T03:37:56;23.55;;;11.90;;
76439;SDS011;65274;44.982;20.060;2022-12-20T03:40:22;26.77;;;13.00;;
76439;SDS011;65274;44.982;20.060;2022-12-20T03:42:48;21.63;;;11.90;;
76439;SDS011;65274;44.982;20.060;2022-12-20T03:45:14;21.02;;;10.95;;
76439;SDS011;65274;44.982;20.060;2022-12-20T03:47:40;23.40;;;11.93;;
76439;SDS011;65274;44.982;20.060;2022-12-20T03:50:07;30.95;;;14.45;;
76439;SDS011;65274;44.982;20.060;2022-12-20T03:52:33;25.10;;;11.77;;
76439;SDS011;65274;44.982;20.060;2022-12-20T03:54:59;23.83;;;13.45;;
76439;SDS011;65274;44.982;20.060;2022-12-20T03:57:25;30.33;;;14.18;;
76439;SDS011;65274;44.982;20.060;2022-12-20T03:59:51;23.38;;;14.73;;
76439;SDS011;65274;44.982;20.060;2022-12-20T04:02:18;26.00;;;13.02;;
76439;SDS011;65274;44.982;20.060;2022-12-20T04:04:45;27.25;;;13.68;;
76439;SDS011;65274;44.982;20.060;2022-12-20T04:07:11;28.50;;;16.45;;
76439;SDS011;65274;44.982;20.060;2022-12-20T04:09:37;29.00;;;14.30;;
76439;SDS011;65274;44.982;20.060;2022-12-20T04:12:03;31.58;;;15.55;;
76439;SDS011;65274;44.982;20.060;2022-12-20T04:14:29;22.02;;;12.52;;
76439;SDS011;65274;44.982;20.060;2022-12-20T04:16:55;27.65;;;15.63;;
76439;SDS011;65274;44.982;20.060;2022-12-20T04:19:22;39.35;;;19.30;;
76439;SDS011;65274;44.982;20.060;2022-12-20T04:21:48;36.20;;;15.35;;
76439;SDS011;65274;44.982;20.060;2022-12-20T04:24:14;22.35;;;11.10;;
76439;SDS011;65274;44.982;20.060;2022-12-20T04:26:40;22.50;;;13.15;;
76439;SDS011;65274;44.982;20.060;2022-12-20T04:29:06;22.60;;;12.15;;
76439;SDS011;65274;44.982;20.060;2022-12-20T04:31:32;20.42;;;10.80;;
76439;SDS011;65274;44.982;20.060;2022-12-20T04:33:58;22.50;;;11.30;;
76439;SDS011;65274;44.982;20.060;2022-12-20T04:36:24;22.05;;;14.18;;
76439;SDS011;65274;44.982;20.060;2022-12-20T04:38:50;24.92;;;14.93;;
76439;SDS011;65274;44.982;20.060;2022-12-20T04:41:17;24.23;;;11.57;;
76439;SDS011;65274;44.982;20.060;2022-12-20T04:43:50;20.23;;;10.30;;
76439;SDS011;65274;44.982;20.060;2022-12-20T04:46:17;20.42;;;11.48;;
76439;SDS011;65274;44.982;20.060;2022-12-20T04:48:43;23.63;;;11.25;;
76439;SDS011;65274;44.982;20.060;2022-12-20T04:51:09;21.75;;;11.13;;
76439;SDS011;65274;44.982;20.060;2022-12-20T04:53:35;22.88;;;11.75;;
76439;SDS011;65274;44.982;20.060;2022-12-20T04:58:40;23.60;;;10.52;;
76439;SDS011;65274;44.982;20.060;2022-12-20T05:01:06;20.73;;;12.45;;
76439;SDS011;65274;44.982;20.060;2022-12-20T05:03:32;22.90;;;10.57;;
76439;SDS011;65274;44.982;20.060;2022-12-20T05:05:58;20.80;;;11.50;;
76439;SDS011;65274;44.982;20.060;2022-12-20T05:08:24;22.27;;;11.88;;
76439;SDS011;65274;44.982;20.060;2022-12-20T05:10:50;18.42;;;10.57;;
76439;SDS011;65274;44.982;20.060;2022-12-20T05:13:16;21.13;;;10.55;;
76439;SDS011;65274;44.982;20.060;2022-12-20T05:15:43;25.42;;;13.02;;
76439;SDS011;65274;44.982;20.060;2022-12-20T05:18:09;25.30;;;12.50;;
76439;SDS011;65274;44.982;20.060;2022-12-20T05:20:35;26.27;;;12.88;;
76439;SDS011;65274;44.982;20.060;2022-12-20T05:23:01;21.48;;;12.93;;
76439;SDS011;65274;44.982;20.060;2022-12-20T05:25:47;20.67;;;10.70;;
76439;SDS011;65274;44.982;20.060;2022-12-20T05:28:34;23.40;;;12.13;;
76439;SDS011;65274;44.982;20.060;2022-12-20T05:31:00;19.20;;;10.23;;
76439;SDS011;65274;44.982;20.060;2022-12-20T05:33:27;23.08;;;10.23;;
76439;SDS011;65274;44.982;20.060;2022-12-20T05:35:53;26.30;;;11.95;;
76439;SDS011;65274;44.982;20.060;2022-12-20T05:38:19;20.25;;;10.75;;
76439;SDS011;65274;44.982;20.060;2022-12-20T05:40:48;26.02;;;14.13;;
76439;SDS011;65274;44.982;20.060;2022-12-20T05:43:15;24.92;;;13.90;;
76439;SDS011;65274;44.982;20.060;2022-12-20T05:45:47;27.20;;;13.45;;
76439;SDS011;65274;44.982;20.060;2022-12-20T05:48:14;28.60;;;13.40;;
76439;SDS011;65274;44.982;20.060;2022-12-20T05:50:41;28.25;;;14.13;;
76439;SDS011;65274;44.982;20.060;2022-12-20T05:53:10;26.10;;;12.23;;
76439;SDS011;65274;44.982;20.060;2022-12-20T05:55:36;33.00;;;16.35;;
76439;SDS011;65274;44.982;20.060;2022-12-20T05:58:04;27.13;;;13.07;;
76439;SDS011;65274;44.982;20.060;2022-12-20T06:00:31;27.10;;;13.38;;
76439;SDS011;65274;44.982;20.060;2022-12-20T06:02:58;26.52;;;12.52;;
76439;SDS011;65274;44.982;20.060;2022-12-20T06:05:24;24.42;;;13.13;;
76439;SDS011;65274;44.982;20.060;2022-12-20T06:07:50;23.10;;;11.85;;
76439;SDS011;65274;44.982;20.060;2022-12-20T06:10:16;27.20;;;13.10;;
76439;SDS011;65274;44.982;20.060;2022-12-20T06:12:42;21.23;;;13.15;;
76439;SDS011;65274;44.982;20.060;2022-12-20T06:15:08;24.83;;;13.20;;
76439;SDS011;65274;44.982;20.060;2022-12-20T06:17:34;26.77;;;15.32;;
76439;SDS011;65274;44.982;20.060;2022-12-20T06:20:00;32.35;;;16.38;;
76439;SDS011;65274;44.982;20.060;2022-12-20T06:22:27;36.28;;;18.63;;
76439;SDS011;65274;44.982;20.060;2022-12-20T06:24:53;24.75;;;14.50;;
76439;SDS011;65274;44.982;20.060;2022-12-20T06:27:19;59.60;;;28.45;;
76439;SDS011;65274;44.982;20.060;2022-12-20T06:29:46;74.47;;;35.55;;
76439;SDS011;65274;44.982;20.060;2022-12-20T06:32:16;89.68;;;33.35;;
76439;SDS011;65274;44.982;20.060;2022-12-20T06:34:42;54.97;;;26.08;;
76439;SDS011;65274;44.982;20.060;2022-12-20T06:37:08;64.55;;;28.02;;
76439;SDS011;65274;44.982;20.060;2022-12-20T06:39:34;69.55;;;27.55;;
76439;SDS011;65274;44.982;20.060;2022-12-20T06:42:00;70.10;;;32.60;;
76439;SDS011;65274;44.982;20.060;2022-12-20T06:44:26;75.30;;;32.70;;
76439;SDS011;65274;44.982;20.060;2022-12-20T06:46:52;67.20;;;27.17;;
76439;SDS011;65274;44.982;20.060;2022-12-20T06:49:18;63.67;;;27.05;;
76439;SDS011;65274;44.982;20.060;2022-12-20T06:51:46;62.85;;;24.60;;
76439;SDS011;65274;44.982;20.060;2022-12-20T06:54:12;65.38;;;27.42;;
76439;SDS011;65274;44.982;20.060;2022-12-20T06:56:38;60.45;;;27.98;;
76439;SDS011;65274;44.982;20.060;2022-12-20T06:59:04;78.68;;;30.02;;
76439;SDS011;65274;44.982;20.060;2022-12-20T07:01:30;66.65;;;26.98;;
76439;SDS011;65274;44.982;20.060;2022-12-20T07:03:56;101.55;;;34.10;;
76439;SDS011;65274;44.982;20.060;2022-12-20T07:06:22;66.60;;;28.38;;
76439;SDS011;65274;44.982;20.060;2022-12-20T07:08:49;76.50;;;30.80;;
76439;SDS011;65274;44.982;20.060;2022-12-20T07:11:15;48.90;;;22.58;;
76439;SDS011;65274;44.982;20.060;2022-12-20T07:13:41;53.97;;;24.70;;
76439;SDS011;65274;44.982;20.060;2022-12-20T07:16:07;64.72;;;26.70;;
76439;SDS011;65274;44.982;20.060;2022-12-20T07:18:33;57.63;;;26.65;;
76439;SDS011;65274;44.982;20.060;2022-12-20T07:21:00;45.38;;;22.05;;
76439;SDS011;65274;44.982;20.060;2022-12-20T07:23:26;44.28;;;23.60;;
76439;SDS011;65274;44.982;20.060;2022-12-20T07:25:55;60.70;;;31.15;;
76439;SDS011;65274;44.982;20.060;2022-12-20T07:28:22;56.55;;;26.70;;
76439;SDS011;65274;44.982;20.060;2022-12-20T07:30:49;59.65;;;27.80;;
76439;SDS011;65274;44.982;20.060;2022-12-20T07:33:15;38.97;;;20.65;;
76439;SDS011;65274;44.982;20.060;2022-12-20T07:35:41;35.13;;;17.77;;
76439;SDS011;65274;44.982;20.060;2022-12-20T07:38:09;40.30;;;17.92;;
76439;SDS011;65274;44.982;20.060;2022-12-20T07:40:35;35.10;;;17.20;;
76439;SDS011;65274;44.982;20.060;2022-12-20T07:43:01;30.58;;;14.43;;
76439;SDS011;65274;44.982;20.060;2022-12-20T07:45:27;32.95;;;15.10;;
76439;SDS011;65274;44.982;20.060;2022-12-20T07:47:53;28.13;;;14.65;;
76439;SDS011;65274;44.982;20.060;2022-12-20T07:50:21;29.38;;;15.05;;
76439;SDS011;65274;44.982;20.060;2022-12-20T07:52:47;27.42;;;14.73;;
76439;SDS011;65274;44.982;20.060;2022-12-20T07:55:14;29.70;;;15.70;;
76439;SDS011;65274;44.982;20.060;2022-12-20T07:57:41;26.15;;;13.65;;
76439;SDS011;65274;44.982;20.060;2022-12-20T08:00:09;23.73;;;13.65;;
76439;SDS011;65274;44.982;20.060;2022-12-20T08:02:36;29.75;;;14.80;;
76439;SDS011;65274;44.982;20.060;2022-12-20T08:05:04;25.92;;;12.63;;
76439;SDS011;65274;44.982;20.060;2022-12-20T08:07:32;26.53;;;14.30;;
76439;SDS011;65274;44.982;20.060;2022-12-20T08:09:58;26.00;;;13.85;;
76439;SDS011;65274;44.982;20.060;2022-12-20T08:12:25;26.92;;;13.05;;
76439;SDS011;65274;44.982;20.060;2022-12-20T08:14:53;28.38;;;14.25;;
76439;SDS011;65274;44.982;20.060;2022-12-20T08:17:20;34.15;;;18.17;;
76439;SDS011;65274;44.982;20.060;2022-12-20T08:19:46;55.78;;;30.10;;
76439;SDS011;65274;44.982;20.060;2022-12-20T08:22:15;32.45;;;16.58;;
76439;SDS011;65274;44.982;20.060;2022-12-20T08:24:41;24.40;;;12.98;;
76439;SDS011;65274;44.982;20.060;2022-12-20T08:27:07;26.08;;;13.07;;
76439;SDS011;65274;44.982;20.060;2022-12-20T08:29:33;23.02;;;12.38;;
76439;SDS011;65274;44.982;20.060;2022-12-20T08:31:59;30.45;;;14.80;;
76439;SDS011;65274;44.982;20.060;2022-12-20T08:34:25;27.77;;;13.23;;
76439;SDS011;65274;44.982;20.060;2022-12-20T08:36:52;29.40;;;14.45;;
76439;SDS011;65274;44.982;20.060;2022-12-20T08:39:18;25.02;;;12.73;;
76439;SDS011;65274;44.982;20.060;2022-12-20T08:41:44;24.67;;;14.32;;
76439;SDS011;65274;44.982;20.060;2022-12-20T08:44:10;25.40;;;14.30;;
76439;SDS011;65274;44.982;20.060;2022-12-20T08:46:36;25.90;;;12.18;;
76439;SDS011;65274;44.982;20.060;2022-12-20T08:49:03;25.08;;;12.93;;
76439;SDS011;65274;44.982;20.060;2022-12-20T08:51:29;21.90;;;12.02;;
76439;SDS011;65274;44.982;20.060;2022-12-20T08:53:55;27.55;;;13.90;;
76439;SDS011;65274;44.982;20.060;2022-12-20T08:56:22;23.15;;;12.65;;
76439;SDS011;65274;44.982;20.060;2022-12-20T08:58:48;22.40;;;13.10;;
76439;SDS011;65274;44.982;20.060;2022-12-20T09:01:15;19.77;;;12.15;;
76439;SDS011;65274;44.982;20.060;2022-12-20T09:03:42;22.85;;;12.52;;
76439;SDS011;65274;44.982;20.060;2022-12-20T09:06:15;22.48;;;12.35;;
76439;SDS011;65274;44.982;20.060;2022-12-20T09:08:42;27.05;;;14.75;;
76439;SDS011;65274;44.982;20.060;2022-12-20T09:11:10;25.48;;;14.68;;
76439;SDS011;65274;44.982;20.060;2022-12-20T09:13:37;35.47;;;17.02;;
76439;SDS011;65274;44.982;20.060;2022-12-20T09:16:04;24.60;;;14.70;;
76439;SDS011;65274;44.982;20.060;2022-12-20T09:18:31;30.00;;;17.83;;
76439;SDS011;65274;44.982;20.060;2022-12-20T09:21:00;22.65;;;12.52;;
76439;SDS011;65274;44.982;20.060;2022-12-20T09:23:27;25.45;;;12.90;;
76439;SDS011;65274;44.982;20.060;2022-12-20T09:25:53;30.70;;;14.35;;
76439;SDS011;65274;44.982;20.060;2022-12-20T09:28:20;25.95;;;13.98;;
76439;SDS011;65274;44.982;20.060;2022-12-20T09:30:46;26.48;;;13.82;;
76439;SDS011;65274;44.982;20.060;2022-12-20T09:33:12;26.75;;;13.68;;
76439;SDS011;65274;44.982;20.060;2022-12-20T09:35:44;26.05;;;13.45;;
76439;SDS011;65274;44.982;20.060;2022-12-20T09:38:11;21.92;;;13.35;;
76439;SDS011;65274;44.982;20.060;2022-12-20T09:40:37;20.27;;;12.98;;
76439;SDS011;65274;44.982;20.060;2022-12-20T09:43:04;21.10;;;11.30;;
76439;SDS011;65274;44.982;20.060;2022-12-20T09:45:34;19.25;;;11.13;;
76439;SDS011;65274;44.982;20.060;2022-12-20T09:50:38;19.30;;;11.52;;
76439;SDS011;65274;44.982;20.060;2022-12-20T09:53:18;17.90;;;10.82;;
76439;SDS011;65274;44.982;20.060;2022-12-20T10:00:56;16.98;;;10.88;;
76439;SDS011;65274;44.982;20.060;2022-12-20T10:03:29;20.88;;;13.25;;
76439;SDS011;65274;44.982;20.060;2022-12-20T10:05:57;19.58;;;10.35;;
76439;SDS011;65274;44.982;20.060;2022-12-20T10:08:32;21.02;;;12.45;;
76439;SDS011;65274;44.982;20.060;2022-12-20T10:11:06;22.02;;;12.23;;
76439;SDS011;65274;44.982;20.060;2022-12-20T10:24:20;22.52;;;13.15;;
76439;SDS011;65274;44.982;20.060;2022-12-20T10:26:50;16.27;;;9.77;;
76439;SDS011;65274;44.982;20.060;2022-12-20T10:29:16;25.63;;;13.73;;
76439;SDS011;65274;44.982;20.060;2022-12-20T10:31:43;23.00;;;11.65;;
76439;SDS011;65274;44.982;20.060;2022-12-20T10:34:09;27.27;;;13.98;;
76439;SDS011;65274;44.982;20.060;2022-12-20T10:36:35;23.30;;;12.02;;
76439;SDS011;65274;44.982;20.060;2022-12-20T10:39:03;27.08;;;12.30;;
76439;SDS011;65274;44.982;20.060;2022-12-20T10:41:31;23.52;;;12.60;;
76439;SDS011;65274;44.982;20.060;2022-12-20T10:44:02;21.63;;;12.68;;
76439;SDS011;65274;44.982;20.060;2022-12-20T10:46:39;25.23;;;12.50;;
76439;SDS011;65274;44.982;20.060;2022-12-20T10:52:32;20.35;;;11.80;;
76439;SDS011;65274;44.982;20.060;2022-12-20T10:54:40;21.80;;;13.02;;
76439;SDS011;65274;44.982;20.060;2022-12-20T10:59:55;27.83;;;13.20;;
76439;SDS011;65274;44.982;20.060;2022-12-20T11:02:31;25.75;;;13.07;;
76439;SDS011;65274;44.982;20.060;2022-12-20T11:04:58;22.80;;;12.32;;
76439;SDS011;65274;44.982;20.060;2022-12-20T11:07:26;23.88;;;11.93;;
76439;SDS011;65274;44.982;20.060;2022-12-20T11:09:59;27.35;;;13.55;;
76439;SDS011;65274;44.982;20.060;2022-12-20T11:12:26;23.27;;;13.48;;
76439;SDS011;65274;44.982;20.060;2022-12-20T11:15:06;21.38;;;13.15;;
76439;SDS011;65274;44.982;20.060;2022-12-20T11:17:35;23.27;;;13.10;;
76439;SDS011;65274;44.982;20.060;2022-12-20T11:30:56;22.85;;;12.30;;
76439;SDS011;65274;44.982;20.060;2022-12-20T11:33:35;24.73;;;13.48;;
76439;SDS011;65274;44.982;20.060;2022-12-20T11:47:12;22.73;;;12.23;;
76439;SDS011;65274;44.982;20.060;2022-12-20T11:57:42;18.92;;;10.43;;
76439;SDS011;65274;44.982;20.060;2022-12-20T12:00:12;23.05;;;11.95;;
76439;SDS011;65274;44.982;20.060;2022-12-20T12:02:42;26.97;;;14.40;;
76439;SDS011;65274;44.982;20.060;2022-12-20T12:05:19;30.13;;;15.40;;
76439;SDS011;65274;44.982;20.060;2022-12-20T12:07:48;32.30;;;15.75;;
76439;SDS011;65274;44.982;20.060;2022-12-20T12:10:17;26.30;;;16.33;;
76439;SDS011;65274;44.982;20.060;2022-12-20T12:12:45;23.25;;;14.90;;
76439;SDS011;65274;44.982;20.060;2022-12-20T12:17:41;22.23;;;13.23;;
76439;SDS011;65274;44.982;20.060;2022-12-20T12:22:39;27.25;;;13.10;;
76439;SDS011;65274;44.982;20.060;2022-12-20T12:25:08;23.63;;;13.13;;
76439;SDS011;65274;44.982;20.060;2022-12-20T12:27:37;28.27;;;14.32;;
76439;SDS011;65274;44.982;20.060;2022-12-20T12:30:03;24.35;;;11.82;;
76439;SDS011;65274;44.982;20.060;2022-12-20T12:32:32;22.55;;;12.27;;
76439;SDS011;65274;44.982;20.060;2022-12-20T12:37:33;23.25;;;13.18;;
76439;SDS011;65274;44.982;20.060;2022-12-20T12:45:27;25.67;;;13.68;;
76439;SDS011;65274;44.982;20.060;2022-12-20T12:48:15;27.95;;;15.27;;
76439;SDS011;65274;44.982;20.060;2022-12-20T12:50:44;21.65;;;13.20;;
76439;SDS011;65274;44.982;20.060;2022-12-20T12:53:12;24.58;;;13.65;;
76439;SDS011;65274;44.982;20.060;2022-12-20T12:55:52;26.65;;;14.45;;
76439;SDS011;65274;44.982;20.060;2022-12-20T13:00:52;22.67;;;12.70;;
76439;SDS011;65274;44.982;20.060;2022-12-20T13:09:08;19.92;;;13.00;;
76439;SDS011;65274;44.982;20.060;2022-12-20T13:11:36;25.50;;;13.07;;
76439;SDS011;65274;44.982;20.060;2022-12-20T13:19:16;19.30;;;12.23;;
76439;SDS011;65274;44.982;20.060;2022-12-20T13:21:43;18.45;;;11.68;;
76439;SDS011;65274;44.982;20.060;2022-12-20T13:26:56;23.08;;;13.65;;
76439;SDS011;65274;44.982;20.060;2022-12-20T13:29:26;23.48;;;13.00;;
76439;SDS011;65274;44.982;20.060;2022-12-20T13:31:57;20.98;;;12.55;;
76439;SDS011;65274;44.982;20.060;2022-12-20T13:34:51;24.20;;;13.93;;
76439;SDS011;65274;44.982;20.060;2022-12-20T13:37:28;24.15;;;13.57;;
76439;SDS011;65274;44.982;20.060;2022-12-20T13:40:17;19.80;;;10.93;;
76439;SDS011;65274;44.982;20.060;2022-12-20T13:42:44;21.52;;;12.55;;
76439;SDS011;65274;44.982;20.060;2022-12-20T13:45:11;23.00;;;13.60;;
76439;SDS011;65274;44.982;20.060;2022-12-20T13:47:48;23.08;;;13.50;;
76439;SDS011;65274;44.982;20.060;2022-12-20T13:52:43;23.38;;;13.52;;
76439;SDS011;65274;44.982;20.060;2022-12-20T13:55:16;22.30;;;13.82;;
76439;SDS011;65274;44.982;20.060;2022-12-20T13:57:47;20.80;;;11.80;;
76439;SDS011;65274;44.982;20.060;2022-12-20T14:00:15;21.75;;;13.10;;
76439;SDS011;65274;44.982;20.060;2022-12-20T14:05:15;26.63;;;15.00;;
76439;SDS011;65274;44.982;20.060;2022-12-20T14:07:42;25.48;;;13.57;;
76439;SDS011;65274;44.982;20.060;2022-12-20T14:10:17;30.65;;;14.07;;
76439;SDS011;65274;44.982;20.060;2022-12-20T14:12:44;24.67;;;13.63;;
76439;SDS011;65274;44.982;20.060;2022-12-20T14:15:20;22.27;;;13.75;;
76439;SDS011;65274;44.982;20.060;2022-12-20T14:17:47;22.05;;;14.07;;
76439;SDS011;65274;44.982;20.060;2022-12-20T14:20:21;26.67;;;15.45;;
76439;SDS011;65274;44.982;20.060;2022-12-20T14:25:15;33.17;;;17.58;;
76439;SDS011;65274;44.982;20.060;2022-12-20T14:27:42;27.15;;;16.88;;
76439;SDS011;65274;44.982;20.060;2022-12-20T14:35:47;31.23;;;18.80;;
76439;SDS011;65274;44.982;20.060;2022-12-20T14:38:21;31.88;;;17.60;;
76439;SDS011;65274;44.982;20.060;2022-12-20T14:40:48;44.88;;;23.50;;
76439;SDS011;65274;44.982;20.060;2022-12-20T14:43:27;77.40;;;36.13;;
76439;SDS011;65274;44.982;20.060;2022-12-20T14:46:14;49.45;;;25.85;;
76439;SDS011;65274;44.982;20.060;2022-12-20T14:48:41;44.95;;;23.13;;
76439;SDS011;65274;44.982;20.060;2022-12-20T14:51:07;49.65;;;24.45;;
76439;SDS011;65274;44.982;20.060;2022-12-20T14:53:34;54.75;;;23.65;;
76439;SDS011;65274;44.982;20.060;2022-12-20T14:56:01;51.88;;;27.58;;
76439;SDS011;65274;44.982;20.060;2022-12-20T14:58:28;47.20;;;26.08;;
76439;SDS011;65274;44.982;20.060;2022-12-20T15:00:59;44.70;;;25.55;;
76439;SDS011;65274;44.982;20.060;2022-12-20T15:03:26;57.38;;;31.02;;
76439;SDS011;65274;44.982;20.060;2022-12-20T15:05:59;112.53;;;58.38;;
76439;SDS011;65274;44.982;20.060;2022-12-20T15:08:27;71.95;;;39.30;;
76439;SDS011;65274;44.982;20.060;2022-12-20T15:10:54;58.83;;;29.63;;
76439;SDS011;65274;44.982;20.060;2022-12-20T15:13:24;64.95;;;31.80;;
76439;SDS011;65274;44.982;20.060;2022-12-20T15:15:52;61.72;;;32.78;;
76439;SDS011;65274;44.982;20.060;2022-12-20T15:18:19;66.35;;;36.15;;
76439;SDS011;65274;44.982;20.060;2022-12-20T15:20:46;67.82;;;35.25;;
76439;SDS011;65274;44.982;20.060;2022-12-20T15:23:16;59.55;;;31.17;;
76439;SDS011;65274;44.982;20.060;2022-12-20T15:25:43;54.53;;;29.30;;
76439;SDS011;65274;44.982;20.060;2022-12-20T15:28:19;55.30;;;28.02;;
76439;SDS011;65274;44.982;20.060;2022-12-20T15:30:46;66.35;;;32.45;;
76439;SDS011;65274;44.982;20.060;2022-12-20T15:33:17;80.15;;;39.50;;
76439;SDS011;65274;44.982;20.060;2022-12-20T15:35:45;79.80;;;38.47;;
76439;SDS011;65274;44.982;20.060;2022-12-20T15:38:16;65.50;;;34.65;;
76439;SDS011;65274;44.982;20.060;2022-12-20T15:40:43;60.88;;;29.23;;
76439;SDS011;65274;44.982;20.060;2022-12-20T15:43:11;51.95;;;25.00;;
76439;SDS011;65274;44.982;20.060;2022-12-20T15:45:37;48.20;;;25.02;;
76439;SDS011;65274;44.982;20.060;2022-12-20T15:48:03;40.50;;;22.17;;
76439;SDS011;65274;44.982;20.060;2022-12-20T15:50:30;36.65;;;20.88;;
76439;SDS011;65274;44.982;20.060;2022-12-20T15:52:56;45.13;;;22.23;;
76439;SDS011;65274;44.982;20.060;2022-12-20T15:55:22;39.08;;;20.45;;
76439;SDS011;65274;44.982;20.060;2022-12-20T15:57:48;43.67;;;21.48;;
76439;SDS011;65274;44.982;20.060;2022-12-20T16:00:14;41.28;;;19.27;;
76439;SDS011;65274;44.982;20.060;2022-12-20T16:02:40;44.83;;;21.35;;
76439;SDS011;65274;44.982;20.060;2022-12-20T16:05:08;42.33;;;21.52;;
76439;SDS011;65274;44.982;20.060;2022-12-20T16:07:34;36.90;;;19.98;;
76439;SDS011;65274;44.982;20.060;2022-12-20T16:10:01;38.65;;;20.05;;
76439;SDS011;65274;44.982;20.060;2022-12-20T16:12:28;43.75;;;22.33;;